Time;durP1;ratioP1;P1;durP2;ratioP2;P2;SDS_P1;SDS_P2;PMS_P1;PMS_P2;Temp;Humidity;BMP_temperature;BMP_pressure;BME280_temperature;BME280_humidity;BME280_pressure;Samples;Min_cycle;Max_cycle;Signal;HPM_P1;HPM_P2
2023/05/05 00:01:22;;;;;;;9.02;5.57;;;15.00;89.70;;;;;;5117608;28;20558;-72
2023/05/05 00:03:48;;;;;;;7.68;4.47;;;14.80;90.90;;;;;;5117380;28;20471;-72
2023/05/05 00:06:13;;;;;;;7.97;4.35;;;14.70;89.50;;;;;;5098693;28;20128;-72
2023/05/05 00:08:39;;;;;;;8.88;4.80;;;14.90;89.20;;;;;;5115991;28;20032;-74
2023/05/05 00:11:04;;;;;;;6.35;4.60;;;14.90;90.00;;;;;;5118015;28;20309;-73
2023/05/05 00:13:30;;;;;;;10.02;4.47;;;14.80;89.90;;;;;;5117260;28;20047;-73
2023/05/05 00:15:56;;;;;;;8.57;4.60;;;14.90;89.70;;;;;;5117357;28;20149;-73
2023/05/05 00:18:21;;;;;;;7.82;5.07;;;15.00;89.50;;;;;;5114735;28;20032;-73
2023/05/05 00:20:47;;;;;;;8.82;4.28;;;15.00;90.20;;;;;;5098850;28;20035;-73
2023/05/05 00:23:17;;;;;;;7.07;4.00;;;15.00;89.70;;;;;;5113966;28;20031;-73
2023/05/05 00:25:43;;;;;;;7.93;4.50;;;15.10;89.20;;;;;;5116840;28;20030;-73
2023/05/05 00:28:09;;;;;;;8.65;4.47;;;15.20;89.00;;;;;;5116289;28;20027;-72
2023/05/05 00:30:40;;;;;;;9.60;4.53;;;15.20;89.40;;;;;;5103821;28;20103;-73
2023/05/05 00:33:06;;;;;;;6.57;4.38;;;15.10;89.70;;;;;;5118337;28;20081;-73
2023/05/05 00:35:32;;;;;;;10.55;5.00;;;15.00;90.20;;;;;;5117268;28;20023;-73
2023/05/05 00:37:58;;;;;;;9.65;5.70;;;14.90;90.50;;;;;;5115379;28;20027;-73
2023/05/05 00:40:24;;;;;;;6.30;4.60;;;14.60;91.90;;;;;;5116697;28;20057;-73
2023/05/05 00:42:49;;;;;;;7.85;4.90;;;14.40;92.00;;;;;;5118215;28;20051;-73
2023/05/05 00:45:16;;;;;;;8.60;5.20;;;14.40;92.20;;;;;;5117633;28;20051;-72
2023/05/05 00:47:46;;;;;;;7.18;4.97;;;14.30;93.10;;;;;;5116593;28;20027;-73
2023/05/05 00:50:24;;;;;;;7.43;4.38;;;14.20;93.00;;;;;;5117291;28;20036;-73
2023/05/05 00:52:53;;;;;;;7.35;4.68;;;14.30;92.70;;;;;;5109946;28;20024;-73
2023/05/05 00:55:19;;;;;;;9.68;5.47;;;14.30;92.80;;;;;;5116956;28;20028;-73
2023/05/05 00:57:47;;;;;;;7.78;5.32;;;14.20;93.70;;;;;;5115171;28;20424;-72
2023/05/05 01:00:13;;;;;;;8.05;5.40;;;14.00;94.40;;;;;;5117430;28;20111;-73
2023/05/05 01:02:40;;;;;;;8.02;4.80;;;13.90;94.40;;;;;;5115834;28;20508;-72
2023/05/05 01:05:07;;;;;;;9.20;5.55;;;13.90;94.70;;;;;;5118107;28;20106;-72
2023/05/05 01:07:54;;;;;;;9.90;5.10;;;14.00;94.50;;;;;;5112447;28;20034;-72
2023/05/05 01:10:53;;;;;;;9.25;4.93;;;13.80;94.90;;;;;;5107701;28;20076;-72
2023/05/05 01:14:04;;;;;;;7.03;4.30;;;13.80;95.10;;;;;;5115187;28;20032;-72
2023/05/05 01:16:33;;;;;;;8.95;5.90;;;13.80;94.90;;;;;;5114126;28;20439;-72
2023/05/05 01:19:28;;;;;;;7.85;5.18;;;13.70;95.50;;;;;;5116251;28;20032;-73
2023/05/05 01:21:59;;;;;;;9.90;4.72;;;13.70;95.60;;;;;;5115863;28;20592;-72
2023/05/05 01:24:41;;;;;;;6.70;4.45;;;13.70;95.50;;;;;;5115564;28;20172;-72
2023/05/05 01:27:26;;;;;;;9.57;5.85;;;13.70;95.80;;;;;;5116013;28;20042;-73
2023/05/05 01:30:33;;;;;;;9.45;5.57;;;13.60;95.90;;;;;;5114614;28;20416;-73
2023/05/05 01:33:07;;;;;;;9.43;5.50;;;13.30;96.40;;;;;;5097977;28;20085;-72
2023/05/05 01:35:36;;;;;;;;;;;13.30;96.20;;;;;;5106806;28;20031;-73
2023/05/05 01:38:08;;;;;;;11.55;5.45;;;13.20;96.50;;;;;;5114120;28;19952;-72
2023/05/05 01:40:39;;;;;;;7.30;4.85;;;13.30;96.50;;;;;;5114998;28;20034;-72
2023/05/05 01:43:07;;;;;;;11.25;4.50;;;13.30;96.40;;;;;;5116383;28;20375;-72
2023/05/05 01:45:36;;;;;;;8.82;4.32;;;13.30;96.40;;;;;;5115529;28;20099;-73
2023/05/05 01:48:05;;;;;;;7.13;4.10;;;13.30;96.50;;;;;;5114804;28;20029;-72
2023/05/05 01:50:31;;;;;;;7.47;5.10;;;13.30;96.50;;;;;;5087213;28;20020;-72
2023/05/05 01:52:57;;;;;;;7.90;4.55;;;13.30;96.50;;;;;;5102743;28;20026;-73
2023/05/05 01:55:26;;;;;;;7.30;4.40;;;13.30;96.50;;;;;;5115178;28;20024;-72
2023/05/05 01:57:53;;;;;;;7.30;5.50;;;13.20;96.60;;;;;;5116085;28;20024;-72
2023/05/05 02:00:20;;;;;;;7.15;5.20;;;13.20;96.60;;;;;;5096831;28;20033;-73
2023/05/05 02:02:48;;;;;;;8.32;4.40;;;13.10;96.70;;;;;;5117056;28;20399;-72
2023/05/05 02:05:15;;;;;;;7.55;4.40;;;12.90;96.70;;;;;;5112873;28;20434;-73
2023/05/05 02:07:42;;;;;;;7.18;4.93;;;13.00;96.70;;;;;;5114676;28;20077;-73
2023/05/05 02:10:11;;;;;;;7.05;4.65;;;13.00;96.70;;;;;;5114896;28;20032;-73
2023/05/05 02:12:38;;;;;;;7.93;4.82;;;12.90;96.70;;;;;;5114878;28;20395;-72
2023/05/05 02:15:08;;;;;;;8.15;4.90;;;13.00;97.00;;;;;;5116715;28;20030;-73
2023/05/05 02:17:34;;;;;;;6.30;4.10;;;13.00;96.70;;;;;;5115798;28;20027;-72
2023/05/05 02:20:02;;;;;;;7.55;4.85;;;12.90;96.70;;;;;;5114722;28;20319;-72
2023/05/05 02:22:28;;;;;;;7.75;5.05;;;12.80;96.60;;;;;;5092471;28;20026;-72
2023/05/05 02:24:54;;;;;;;10.02;4.70;;;12.80;96.60;;;;;;5115474;28;20023;-73
2023/05/05 02:27:22;;;;;;;8.30;4.50;;;12.70;96.70;;;;;;5114232;28;20424;-72
2023/05/05 02:29:51;;;;;;;5.75;4.15;;;12.70;96.60;;;;;;5115447;28;20100;-72
2023/05/05 02:32:26;;;;;;;8.55;4.38;;;12.80;96.80;;;;;;5115338;28;20176;-73
2023/05/05 02:34:54;;;;;;;7.57;4.38;;;12.70;96.90;;;;;;5115380;28;20085;-72
2023/05/05 02:37:23;;;;;;;7.70;4.68;;;12.70;96.80;;;;;;5115155;28;20028;-72
2023/05/05 02:40:04;;;;;;;6.47;4.07;;;12.70;96.50;;;;;;5115194;28;20016;-73
2023/05/05 02:42:40;;;;;;;6.93;4.40;;;12.60;96.70;;;;;;5106164;28;20331;-73
2023/05/05 02:45:11;;;;;;;8.00;4.30;;;12.70;96.60;;;;;;5094373;28;20038;-73
2023/05/05 02:47:37;;;;;;;6.95;4.30;;;12.60;96.90;;;;;;5114144;28;20043;-73
2023/05/05 02:50:04;;;;;;;7.38;4.40;;;12.70;96.80;;;;;;5112616;28;20023;-72
2023/05/05 02:52:31;;;;;;;8.13;4.40;;;12.60;97.00;;;;;;5111799;28;20110;-72
2023/05/05 02:54:57;;;;;;;7.78;4.90;;;12.60;96.90;;;;;;5096522;28;20293;-72
2023/05/05 02:57:34;;;;;;;6.10;4.47;;;12.60;96.80;;;;;;5114789;28;20019;-72
2023/05/05 03:00:42;;;;;;;7.30;4.50;;;12.50;96.70;;;;;;5098031;28;20028;-72
2023/05/05 03:03:16;;;;;;;6.38;4.53;;;12.30;96.30;;;;;;5071745;28;20047;-73
2023/05/05 03:05:50;;;;;;;;;;;12.30;96.40;;;;;;5114715;28;20105;-73
2023/05/05 03:08:25;;;;;;;6.35;4.50;;;12.20;95.90;;;;;;5111091;28;19907;-73
2023/05/05 03:11:17;;;;;;;7.15;5.10;;;12.20;96.50;;;;;;5097563;28;20030;-73
2023/05/05 03:13:45;;;;;;;8.10;4.70;;;12.30;96.30;;;;;;5113920;28;20069;-73
2023/05/05 03:16:12;;;;;;;8.05;5.00;;;12.40;96.70;;;;;;5116038;28;20105;-73
2023/05/05 03:18:41;;;;;;;9.35;5.13;;;12.50;96.90;;;;;;5113240;28;20431;-73
2023/05/05 03:21:08;;;;;;;12.15;4.70;;;12.60;96.70;;;;;;5113486;28;20092;-73
2023/05/05 03:23:34;;;;;;;6.65;4.60;;;12.60;96.80;;;;;;5109982;28;20024;-73
2023/05/05 03:26:00;;;;;;;7.00;4.18;;;12.60;97.00;;;;;;5114072;28;20133;-72
2023/05/05 03:28:25;;;;;;;9.15;4.70;;;12.80;97.20;;;;;;5114104;28;20423;-73
2023/05/05 03:30:53;;;;;;;10.68;4.57;;;13.00;97.30;;;;;;5111467;28;20032;-72
2023/05/05 03:33:18;;;;;;;8.95;4.85;;;13.10;97.20;;;;;;5111503;28;20444;-71
2023/05/05 03:35:44;;;;;;;6.35;4.47;;;13.20;97.10;;;;;;5113726;28;20035;-71
2023/05/05 03:38:10;;;;;;;10.73;4.93;;;13.20;96.90;;;;;;5108412;28;20376;-73
2023/05/05 03:40:36;;;;;;;6.82;4.93;;;13.10;97.00;;;;;;5112538;28;20028;-73
2023/05/05 03:43:02;;;;;;;7.43;4.55;;;13.10;97.00;;;;;;5112313;28;20040;-72
2023/05/05 03:45:27;;;;;;;7.93;3.78;;;13.00;96.90;;;;;;5113695;28;20193;-72
2023/05/05 03:47:53;;;;;;;8.98;4.47;;;13.10;97.20;;;;;;5112687;28;20036;-72
2023/05/05 03:50:18;;;;;;;6.20;4.20;;;13.10;96.80;;;;;;5113925;28;20034;-72
2023/05/05 03:52:44;;;;;;;10.30;4.70;;;13.20;97.00;;;;;;5112693;28;20043;-72
2023/05/05 03:55:10;;;;;;;8.95;4.28;;;13.30;97.20;;;;;;5111008;28;20028;-73
2023/05/05 03:57:35;;;;;;;9.20;4.03;;;13.40;97.10;;;;;;5113230;28;20036;-72
2023/05/05 04:00:01;;;;;;;6.85;4.07;;;13.40;97.00;;;;;;5115011;28;20574;-72
2023/05/05 04:02:31;;;;;;;7.25;4.03;;;13.40;97.00;;;;;;5111494;28;20028;-71
2023/05/05 04:04:59;;;;;;;6.22;4.30;;;13.40;97.00;;;;;;5112288;28;20115;-72
2023/05/05 04:07:25;;;;;;;12.10;4.05;;;13.40;96.90;;;;;;5112981;27;20039;-72
2023/05/05 04:09:51;;;;;;;7.40;4.03;;;13.40;96.90;;;;;;5115485;28;20028;-73
2023/05/05 04:12:16;;;;;;;7.70;4.60;;;13.30;96.90;;;;;;5113071;27;20052;-72
2023/05/05 04:14:42;;;;;;;6.22;4.28;;;13.20;96.80;;;;;;5115975;28;20058;-73
2023/05/05 04:17:07;;;;;;;8.23;4.93;;;13.00;96.50;;;;;;5117564;28;20104;-73
2023/05/05 04:19:33;;;;;;;9.73;4.78;;;12.90;96.40;;;;;;5116136;28;20027;-72
2023/05/05 04:21:59;;;;;;;6.85;4.00;;;12.80;96.40;;;;;;5116725;28;20023;-73
2023/05/05 04:24:25;;;;;;;6.88;4.60;;;12.80;96.70;;;;;;5116073;28;20374;-73
2023/05/05 04:26:51;;;;;;;7.35;4.60;;;12.80;96.40;;;;;;5118760;28;20034;-72
2023/05/05 04:29:16;;;;;;;6.93;4.07;;;12.90;96.50;;;;;;5113983;28;20349;-73
2023/05/05 04:31:43;;;;;;;7.75;4.47;;;13.00;97.00;;;;;;5117721;28;20110;-73
2023/05/05 04:34:08;;;;;;;7.65;4.47;;;13.20;96.90;;;;;;5114841;28;20119;-72
2023/05/05 04:36:34;;;;;;;8.13;4.32;;;13.30;97.00;;;;;;5118333;28;20082;-73
2023/05/05 04:39:00;;;;;;;6.68;4.20;;;13.40;97.30;;;;;;5115430;28;20102;-73
2023/05/05 04:41:25;;;;;;;6.75;4.07;;;13.40;97.20;;;;;;5116851;28;20061;-73
2023/05/05 04:43:52;;;;;;;7.53;4.70;;;13.50;97.20;;;;;;5116187;28;20038;-72
2023/05/05 04:46:18;;;;;;;6.32;4.03;;;13.60;97.00;;;;;;5114577;28;20089;-73
2023/05/05 04:48:44;;;;;;;6.55;4.20;;;13.70;96.90;;;;;;5117530;28;20032;-72
2023/05/05 04:51:09;;;;;;;7.05;4.55;;;13.70;97.30;;;;;;5117100;28;20039;-73
2023/05/05 04:53:35;;;;;;;8.93;4.57;;;13.80;96.90;;;;;;5115305;28;20035;-73
2023/05/05 04:56:01;;;;;;;9.25;4.40;;;13.90;97.30;;;;;;5117370;28;20019;-73
2023/05/05 04:58:27;;;;;;;7.25;5.40;;;14.00;96.80;;;;;;5118147;28;20023;-73
2023/05/05 05:00:55;;;;;;;7.63;4.50;;;14.20;97.00;;;;;;5116254;28;20050;-73
2023/05/05 05:03:21;;;;;;;11.18;6.28;;;14.30;97.00;;;;;;5115984;28;20024;-72
2023/05/05 05:05:47;;;;;;;8.93;5.68;;;14.40;96.80;;;;;;5097747;28;20312;-73
2023/05/05 05:08:15;;;;;;;10.95;5.43;;;14.40;96.80;;;;;;5097944;28;20031;-72
2023/05/05 05:10:41;;;;;;;6.35;3.80;;;14.40;96.80;;;;;;5115837;28;20016;-72
2023/05/05 05:13:06;;;;;;;9.52;4.05;;;14.40;96.90;;;;;;5115548;28;20100;-73
2023/05/05 05:15:32;;;;;;;8.60;4.10;;;14.40;96.80;;;;;;5115745;28;20063;-72
2023/05/05 05:17:57;;;;;;;8.07;3.83;;;14.30;96.80;;;;;;5117939;28;20020;-72
2023/05/05 05:20:23;;;;;;;7.70;4.15;;;14.20;97.00;;;;;;5116759;28;20031;-72
2023/05/05 05:22:49;;;;;;;5.90;3.90;;;14.20;97.00;;;;;;5116551;28;20031;-73
2023/05/05 05:25:14;;;;;;;7.05;3.67;;;14.20;97.00;;;;;;5115866;28;20493;-72
2023/05/05 05:27:41;;;;;;;7.95;3.92;;;14.20;97.00;;;;;;5117512;28;20135;-72
2023/05/05 05:30:08;;;;;;;10.38;4.18;;;14.20;97.20;;;;;;5114787;28;20108;-72
2023/05/05 05:32:33;;;;;;;6.60;4.03;;;14.30;97.10;;;;;;5117529;28;20023;-73
2023/05/05 05:34:59;;;;;;;5.85;3.97;;;14.40;97.00;;;;;;5098665;28;20042;-72
2023/05/05 05:37:29;;;;;;;6.50;4.07;;;14.50;97.00;;;;;;5116413;28;20046;-73
2023/05/05 05:39:55;;;;;;;5.35;3.72;;;14.60;96.90;;;;;;5116236;28;20098;-72
2023/05/05 05:42:21;;;;;;;5.90;3.30;;;14.80;96.50;;;;;;5116400;28;20067;-72
2023/05/05 05:44:47;;;;;;;6.22;3.20;;;15.00;96.10;;;;;;5116529;28;20320;-72
2023/05/05 05:47:13;;;;;;;8.07;3.95;;;15.20;96.60;;;;;;5117233;28;20030;-72
2023/05/05 05:49:38;;;;;;;6.55;2.90;;;15.30;96.20;;;;;;5116426;28;20106;-72
2023/05/05 05:52:04;;;;;;;5.45;3.00;;;15.50;94.50;;;;;;5117192;28;20111;-72
2023/05/05 05:54:33;;;;;;;5.03;3.50;;;15.70;92.70;;;;;;5097057;28;20400;-72
2023/05/05 05:56:58;;;;;;;6.03;2.97;;;16.00;93.40;;;;;;5114089;28;20107;-72
2023/05/05 05:59:24;;;;;;;7.35;3.50;;;16.30;93.00;;;;;;5104895;28;20050;-73
2023/05/05 06:01:49;;;;;;;9.00;3.08;;;16.50;93.30;;;;;;5101928;28;20024;-73
2023/05/05 06:04:15;;;;;;;7.43;3.50;;;16.70;92.30;;;;;;5113493;28;20031;-73
2023/05/05 06:06:41;;;;;;;7.97;3.45;;;17.00;90.30;;;;;;5111041;28;20030;-73
2023/05/05 06:09:06;;;;;;;4.72;2.65;;;17.20;87.50;;;;;;5114295;28;20106;-73
2023/05/05 06:11:33;;;;;;;9.40;3.75;;;17.40;86.80;;;;;;5122256;27;20019;-73
2023/05/05 06:13:59;;;;;;;6.90;3.55;;;17.70;87.10;;;;;;5133223;27;20022;-73
2023/05/05 06:16:24;;;;;;;6.10;2.85;;;17.90;86.00;;;;;;5116477;28;20023;-73
2023/05/05 06:18:50;;;;;;;8.68;2.92;;;18.10;85.20;;;;;;5096385;28;20027;-73
2023/05/05 06:21:19;;;;;;;4.82;2.60;;;18.10;84.90;;;;;;5112617;28;20032;-72
2023/05/05 06:23:45;;;;;;;6.10;3.13;;;18.20;84.90;;;;;;5113116;28;20035;-73
2023/05/05 06:26:11;;;;;;;6.57;3.40;;;18.20;84.00;;;;;;5112042;28;20023;-73
2023/05/05 06:28:36;;;;;;;6.22;2.88;;;18.10;84.30;;;;;;5113563;28;20028;-73
2023/05/05 06:31:02;;;;;;;6.85;3.42;;;18.10;85.10;;;;;;5097931;28;20043;-73
2023/05/05 06:33:27;;;;;;;8.75;2.88;;;18.10;85.10;;;;;;5111250;28;20062;-73
2023/05/05 06:35:53;;;;;;;5.60;2.95;;;17.90;84.80;;;;;;5114627;28;20053;-73
2023/05/05 06:38:18;;;;;;;6.43;2.90;;;17.80;85.60;;;;;;5109706;28;20032;-73
2023/05/05 06:40:47;;;;;;;6.28;2.67;;;17.70;85.80;;;;;;5111651;28;20448;-73
2023/05/05 06:43:13;;;;;;;6.50;2.55;;;17.60;86.30;;;;;;5116405;28;20047;-72
2023/05/05 06:45:38;;;;;;;6.18;3.17;;;17.60;86.50;;;;;;5115131;28;20036;-72
2023/05/05 06:48:04;;;;;;;5.30;2.75;;;17.80;86.10;;;;;;5116408;28;20027;-72
2023/05/05 06:50:29;;;;;;;5.63;2.90;;;18.10;85.90;;;;;;5115232;28;20039;-73
2023/05/05 06:52:55;;;;;;;9.77;3.10;;;18.30;86.20;;;;;;5115127;28;20027;-72
2023/05/05 06:55:22;;;;;;;5.28;2.78;;;18.30;84.80;;;;;;5113620;28;20032;-73
2023/05/05 06:57:47;;;;;;;7.05;3.30;;;18.40;85.70;;;;;;5116145;28;20073;-72
2023/05/05 07:00:14;;;;;;;8.75;2.88;;;18.50;85.20;;;;;;5115341;28;20058;-72
2023/05/05 07:02:40;;;;;;;9.45;3.88;;;18.20;84.70;;;;;;5116300;28;20039;-72
2023/05/05 07:05:06;;;;;;;5.65;2.97;;;18.30;85.20;;;;;;5100754;28;20184;-72
2023/05/05 07:07:31;;;;;;;8.02;3.33;;;18.30;85.50;;;;;;5114061;28;20115;-72
2023/05/05 07:09:57;;;;;;;5.57;2.97;;;18.00;85.20;;;;;;5113654;28;20051;-72
2023/05/05 07:12:23;;;;;;;6.10;2.60;;;17.80;86.30;;;;;;5111021;28;20039;-72
2023/05/05 07:14:48;;;;;;;6.57;2.85;;;17.70;86.50;;;;;;5116083;28;20027;-72
2023/05/05 07:17:14;;;;;;;6.82;2.70;;;17.50;87.40;;;;;;5115039;28;20030;-72
2023/05/05 07:19:43;;;;;;;7.68;2.90;;;17.40;87.80;;;;;;5115160;28;20324;-72
2023/05/05 07:22:08;;;;;;;4.60;2.70;;;17.20;88.40;;;;;;5115972;28;20039;-72
2023/05/05 07:24:34;;;;;;;6.63;3.08;;;17.10;89.40;;;;;;5114705;28;20027;-72
2023/05/05 07:27:00;;;;;;;7.03;2.60;;;17.00;89.70;;;;;;5114927;28;20106;-72
2023/05/05 07:29:25;;;;;;;4.50;2.50;;;17.00;90.10;;;;;;5114055;28;20066;-72
2023/05/05 07:31:51;;;;;;;6.50;3.33;;;17.00;90.20;;;;;;5116308;28;20431;-72
2023/05/05 07:34:17;;;;;;;5.63;3.10;;;17.00;90.20;;;;;;5114837;28;20102;-73
2023/05/05 07:36:43;;;;;;;8.50;3.30;;;17.00;90.50;;;;;;5105322;28;20293;-73
2023/05/05 07:39:08;;;;;;;6.88;2.90;;;17.00;90.40;;;;;;5117188;28;20028;-72
2023/05/05 07:41:34;;;;;;;6.80;3.42;;;17.00;90.50;;;;;;5118471;28;20020;-73
2023/05/05 07:44:00;;;;;;;5.38;2.90;;;16.90;90.50;;;;;;5117987;28;20305;-72
2023/05/05 07:46:25;;;;;;;6.50;2.80;;;16.80;90.80;;;;;;5118829;28;20346;-73
2023/05/05 07:48:51;;;;;;;7.70;2.80;;;16.80;90.90;;;;;;5118945;28;20039;-72
2023/05/05 07:51:16;;;;;;;7.85;3.40;;;16.70;91.50;;;;;;5118660;28;20035;-75
2023/05/05 07:53:42;;;;;;;8.75;3.70;;;16.50;94.20;;;;;;5117146;28;20028;-74
2023/05/05 07:56:08;;;;;;;11.73;4.47;;;16.00;94.90;;;;;;5118658;28;20031;-74
2023/05/05 07:58:33;;;;;;;7.72;4.60;;;15.50;94.10;;;;;;5109542;28;20063;-75
2023/05/05 08:01:00;;;;;;;9.85;4.20;;;15.10;92.60;;;;;;5090498;28;20024;-76
2023/05/05 08:03:25;;;;;;;11.20;4.13;;;14.90;91.10;;;;;;5092381;28;20024;-76
2023/05/05 08:05:53;;;;;;;11.68;4.65;;;14.80;89.20;;;;;;5111003;28;20084;-76
2023/05/05 08:08:23;;;;;;;7.32;4.00;;;14.80;87.60;;;;;;5106081;28;20066;-76
2023/05/05 08:10:49;;;;;;;9.15;4.72;;;14.80;86.30;;;;;;5109757;28;20102;-76
2023/05/05 08:13:14;;;;;;;10.40;5.10;;;14.90;83.30;;;;;;5108270;28;20028;-76
2023/05/05 08:15:40;;;;;;;10.70;5.35;;;15.10;81.40;;;;;;5107847;28;20104;-76
2023/05/05 08:18:05;;;;;;;9.48;5.53;;;15.30;82.70;;;;;;5118972;28;20387;-76
2023/05/05 08:20:31;;;;;;;10.65;5.47;;;15.30;81.80;;;;;;5109581;28;20024;-76
2023/05/05 08:22:57;;;;;;;9.70;4.78;;;15.30;83.50;;;;;;5109569;28;20042;-76
2023/05/05 08:25:25;;;;;;;11.23;5.65;;;15.20;84.30;;;;;;5113982;28;20032;-76
2023/05/05 08:27:51;;;;;;;10.18;6.32;;;15.10;82.00;;;;;;5117517;28;20098;-76
2023/05/05 08:30:19;;;;;;;8.68;5.53;;;15.00;80.70;;;;;;5117570;28;20157;-76
2023/05/05 08:32:45;;;;;;;11.07;6.03;;;15.10;78.90;;;;;;5113757;28;20444;-76
2023/05/05 08:35:11;;;;;;;10.50;5.50;;;15.10;78.30;;;;;;5107695;28;20031;-76
2023/05/05 08:37:37;;;;;;;10.10;5.10;;;15.20;77.20;;;;;;5091594;28;20019;-76
2023/05/05 08:40:03;;;;;;;13.80;5.20;;;15.30;77.70;;;;;;5103594;28;20420;-76
2023/05/05 08:42:29;;;;;;;9.38;4.97;;;15.40;79.10;;;;;;5115080;27;20036;-76
2023/05/05 08:44:55;;;;;;;10.43;5.45;;;15.50;80.20;;;;;;5087331;28;20093;-76
2023/05/05 08:47:21;;;;;;;9.90;4.82;;;15.60;82.10;;;;;;5105312;28;20689;-75
2023/05/05 08:49:52;;;;;;;9.18;5.28;;;15.70;80.40;;;;;;5116785;28;20031;-75
2023/05/05 08:52:22;;;;;;;9.88;4.47;;;16.00;79.50;;;;;;5090635;28;20427;-76
2023/05/05 08:55:05;;;;;;;7.82;4.10;;;16.20;84.60;;;;;;5105159;27;20028;-77
2023/05/05 08:58:02;;;;;;;6.40;3.78;;;16.30;85.20;;;;;;5112427;28;20078;-76
2023/05/05 09:00:28;;;;;;;9.52;3.88;;;16.40;87.60;;;;;;5107888;28;20032;-76
2023/05/05 09:02:55;;;;;;;4.80;3.10;;;16.70;88.10;;;;;;5099224;28;20023;-75
2023/05/05 09:05:21;;;;;;;6.68;3.70;;;17.00;91.10;;;;;;5117072;28;20055;-75
2023/05/05 09:07:48;;;;;;;6.30;3.25;;;17.10;92.70;;;;;;5111135;28;20035;-74
2023/05/05 09:10:16;;;;;;;8.20;3.80;;;17.30;91.90;;;;;;5116804;28;20107;-75
2023/05/05 09:12:42;;;;;;;7.60;4.18;;;17.30;93.90;;;;;;5114724;28;20043;-74
2023/05/05 09:15:13;;;;;;;6.30;3.60;;;17.10;95.50;;;;;;5111485;28;20028;-74
2023/05/05 09:17:39;;;;;;;7.05;3.17;;;17.20;95.00;;;;;;5116400;28;20378;-74
2023/05/05 09:20:06;;;;;;;7.03;3.28;;;17.30;96.50;;;;;;5096222;28;20092;-74
2023/05/05 09:22:38;;;;;;;6.68;3.30;;;17.50;96.40;;;;;;5091393;28;20085;-74
2023/05/05 09:25:05;;;;;;;5.78;2.85;;;17.90;96.10;;;;;;5108185;28;20031;-74
2023/05/05 09:27:39;;;;;;;7.90;2.75;;;18.30;96.70;;;;;;5114414;28;20111;-74
2023/05/05 09:30:05;;;;;;;6.22;2.53;;;18.60;96.60;;;;;;5114626;28;20024;-74
2023/05/05 09:32:49;;;;;;;5.68;2.65;;;19.00;94.60;;;;;;5115646;28;20031;-75
2023/05/05 09:35:16;;;;;;;7.55;2.65;;;19.60;94.50;;;;;;5086660;28;20052;-73
2023/05/05 09:37:42;;;;;;;3.90;1.98;;;20.80;90.90;;;;;;5111236;28;20366;-73
2023/05/05 09:40:08;;;;;;;4.75;2.28;;;22.00;88.80;;;;;;5116282;28;20027;-74
2023/05/05 09:42:36;;;;;;;5.22;1.80;;;23.10;84.70;;;;;;5115306;28;20054;-74
2023/05/05 09:45:01;;;;;;;3.90;1.80;;;24.30;83.70;;;;;;5080542;28;20033;-74
2023/05/05 09:47:34;;;;;;;3.20;1.38;;;25.00;78.10;;;;;;5108730;28;20039;-73
2023/05/05 09:50:00;;;;;;;3.85;1.55;;;25.10;73.90;;;;;;5117033;28;20030;-72
2023/05/05 09:52:26;;;;;;;3.78;1.80;;;25.80;74.40;;;;;;5115943;28;20023;-73
2023/05/05 09:54:56;;;;;;;2.60;1.20;;;26.70;70.30;;;;;;5110416;28;20042;-73
2023/05/05 09:57:39;;;;;;;4.47;1.60;;;27.50;67.40;;;;;;5115858;28;20051;-73
2023/05/05 10:00:06;;;;;;;2.75;1.25;;;26.90;68.80;;;;;;5116883;28;20089;-73
2023/05/05 10:02:34;;;;;;;4.28;1.20;;;26.80;69.90;;;;;;5115155;28;20028;-73
2023/05/05 10:05:16;;;;;;;4.68;1.45;;;27.10;67.40;;;;;;5114380;28;20500;-73
2023/05/05 10:07:44;;;;;;;5.00;1.48;;;27.30;69.20;;;;;;5115642;28;20377;-72
2023/05/05 10:10:12;;;;;;;3.75;1.10;;;27.10;69.50;;;;;;5117126;28;20024;-72
2023/05/05 10:12:38;;;;;;;3.70;1.30;;;26.80;68.10;;;;;;5114643;28;20493;-73
2023/05/05 10:15:05;;;;;;;6.28;1.77;;;26.90;69.00;;;;;;5116761;28;20031;-73
2023/05/05 10:17:35;;;;;;;4.28;1.33;;;25.90;70.20;;;;;;5114596;28;20020;-73
2023/05/05 10:20:03;;;;;;;4.47;1.42;;;25.40;70.70;;;;;;5115712;28;20024;-73
2023/05/05 10:22:33;;;;;;;3.67;1.40;;;26.10;68.50;;;;;;5112140;28;20362;-73
2023/05/05 10:25:09;;;;;;;3.38;1.30;;;26.20;69.40;;;;;;5099048;28;20366;-72
2023/05/05 10:27:42;;;;;;;4.03;1.42;;;26.00;67.60;;;;;;5115792;28;20336;-73
2023/05/05 10:30:15;;;;;;;5.88;1.77;;;25.90;69.50;;;;;;5116533;28;20057;-72
2023/05/05 10:32:48;;;;;;;3.75;1.65;;;25.70;70.80;;;;;;5104259;28;20486;-72
2023/05/05 10:35:26;;;;;;;3.85;1.42;;;26.30;68.40;;;;;;5096180;28;20039;-73
2023/05/05 10:37:53;;;;;;;5.43;1.50;;;27.30;64.90;;;;;;5107332;28;20036;-73
2023/05/05 10:40:21;;;;;;;3.25;1.45;;;27.60;64.90;;;;;;5116464;28;20128;-72
2023/05/05 10:42:48;;;;;;;3.33;1.25;;;27.40;66.10;;;;;;5115095;28;20047;-73
2023/05/05 10:45:17;;;;;;;4.78;1.48;;;27.20;64.50;;;;;;5116513;28;20019;-73
2023/05/05 10:47:43;;;;;;;6.93;1.50;;;27.20;65.60;;;;;;5114274;28;20034;-73
2023/05/05 10:50:20;;;;;;;3.45;1.60;;;27.00;65.70;;;;;;5116468;28;20019;-72
2023/05/05 10:53:23;;;;;;;3.63;1.52;;;26.20;67.70;;;;;;5113026;28;20036;-72
2023/05/05 10:56:04;;;;;;;2.78;1.40;;;26.10;68.40;;;;;;5115944;28;20350;-73
2023/05/05 10:58:34;;;;;;;4.40;1.30;;;26.30;67.00;;;;;;5112035;28;20111;-72
2023/05/05 11:01:01;;;;;;;3.03;1.40;;;26.20;68.60;;;;;;5114079;28;20035;-73
2023/05/05 11:03:26;;;;;;;4.25;1.50;;;26.20;66.50;;;;;;5116290;28;20030;-72
2023/05/05 11:06:06;;;;;;;5.72;1.67;;;26.50;65.90;;;;;;5113808;28;20040;-73
2023/05/05 11:08:36;;;;;;;5.35;1.60;;;26.20;66.90;;;;;;5115141;28;20032;-72
2023/05/05 11:11:03;;;;;;;2.63;1.42;;;25.60;68.10;;;;;;5098558;28;20080;-72
2023/05/05 11:13:29;;;;;;;3.33;1.38;;;25.10;68.20;;;;;;5101469;28;20024;-72
2023/05/05 11:15:56;;;;;;;3.22;1.35;;;25.10;70.10;;;;;;5118634;28;20040;-72
2023/05/05 11:18:35;;;;;;;3.85;1.30;;;25.40;69.10;;;;;;5120315;28;20089;-72
2023/05/05 11:21:02;;;;;;;4.82;1.50;;;24.90;67.30;;;;;;5118508;28;20333;-72
2023/05/05 11:23:29;;;;;;;4.22;1.40;;;24.90;68.70;;;;;;5119069;28;20016;-72
2023/05/05 11:25:56;;;;;;;3.75;1.65;;;24.90;69.60;;;;;;5119085;28;20042;-73
2023/05/05 11:28:29;;;;;;;4.05;1.50;;;24.90;70.80;;;;;;5114920;28;20088;-72
2023/05/05 11:30:55;;;;;;;4.72;1.70;;;24.60;70.80;;;;;;5117359;28;20032;-72
2023/05/05 11:33:29;;;;;;;3.10;1.42;;;24.60;71.80;;;;;;5098905;28;20484;-72
2023/05/05 11:35:55;;;;;;;4.35;1.85;;;24.60;72.00;;;;;;5119833;28;20408;-72
2023/05/05 11:38:43;;;;;;;4.22;1.60;;;24.80;71.70;;;;;;5117818;27;20059;-72
2023/05/05 11:41:16;;;;;;;4.00;1.45;;;24.80;70.70;;;;;;5118786;28;20031;-72
2023/05/05 11:43:42;;;;;;;5.90;1.92;;;24.60;70.30;;;;;;5119619;28;20044;-72
2023/05/05 11:46:11;;;;;;;4.15;1.60;;;24.30;74.00;;;;;;5118903;28;20365;-72
2023/05/05 11:48:47;;;;;;;3.63;1.45;;;24.80;73.30;;;;;;5119429;28;20031;-73
2023/05/05 11:51:14;;;;;;;4.38;1.45;;;25.50;72.10;;;;;;5118676;28;20055;-74
2023/05/05 11:53:48;;;;;;;4.95;1.52;;;25.50;71.00;;;;;;5118403;28;20024;-72
2023/05/05 11:56:21;;;;;;;4.75;1.60;;;24.90;72.50;;;;;;5118320;28;20031;-73
2023/05/05 11:58:48;;;;;;;4.50;1.70;;;25.10;73.20;;;;;;5119592;28;20293;-73
2023/05/05 12:01:14;;;;;;;3.35;1.40;;;24.90;72.80;;;;;;5117449;28;20081;-72
2023/05/05 12:03:40;;;;;;;3.97;1.77;;;24.70;73.60;;;;;;5119359;28;20439;-72
2023/05/05 12:06:07;;;;;;;3.95;1.75;;;25.20;72.80;;;;;;5118206;28;20036;-73
2023/05/05 12:08:40;;;;;;;4.90;2.00;;;25.60;72.00;;;;;;5118190;28;20023;-73
2023/05/05 12:11:10;;;;;;;4.77;1.60;;;24.60;72.70;;;;;;5118280;28;20042;-73
2023/05/05 12:13:35;;;;;;;8.20;1.92;;;24.50;75.10;;;;;;5118068;28;20686;-72
2023/05/05 12:16:11;;;;;;;4.30;1.75;;;24.60;74.30;;;;;;5118180;28;20046;-72
2023/05/05 12:18:37;;;;;;;3.50;1.83;;;24.20;74.20;;;;;;5118241;28;20020;-72
2023/05/05 12:21:19;;;;;;;3.25;1.40;;;23.90;75.20;;;;;;5119280;28;20031;-73
2023/05/05 12:23:45;;;;;;;4.50;2.00;;;24.00;75.30;;;;;;5116564;28;20027;-72
2023/05/05 12:26:27;;;;;;;4.15;1.77;;;23.80;74.90;;;;;;5100125;28;20031;-72
2023/05/05 12:28:58;;;;;;;3.67;1.83;;;24.00;74.90;;;;;;5117899;27;20023;-72
2023/05/05 12:31:40;;;;;;;4.18;1.63;;;23.90;74.80;;;;;;5118835;28;20034;-72
2023/05/05 12:34:08;;;;;;;3.67;1.55;;;23.90;75.10;;;;;;5117518;28;20435;-73
2023/05/05 12:36:35;;;;;;;8.45;1.98;;;24.50;72.90;;;;;;5118928;28;20099;-72
2023/05/05 12:39:03;;;;;;;5.03;1.75;;;24.90;71.70;;;;;;5115711;28;20019;-73
2023/05/05 12:41:30;;;;;;;4.63;1.85;;;24.20;72.20;;;;;;5117421;28;20038;-72
2023/05/05 12:43:57;;;;;;;4.82;2.03;;;23.70;74.00;;;;;;5116536;28;20026;-72
2023/05/05 12:46:23;;;;;;;4.22;1.80;;;22.90;75.60;;;;;;5118523;28;20034;-71
2023/05/05 12:49:00;;;;;;;6.10;2.13;;;22.40;77.30;;;;;;5114981;28;20479;-72
2023/05/05 12:51:26;;;;;;;3.65;1.83;;;22.50;78.40;;;;;;5118587;28;20034;-72
2023/05/05 12:54:09;;;;;;;3.53;1.65;;;22.90;80.80;;;;;;5116222;28;20055;-72